beowulf1117.tumblr.com alexa rank chart, beowulf1117.tumblr.com alexa rank daily changes

beowulf1117.tumblr.com alexa rank chart, beowulf1117.tumblr.com alexa rank daily changes

beowulf1117.tumblr.com
Actual rank:
554 947

RANK HISTORY

Date Rank Diff
2017/07/23 554 947 -58 436
2017/07/22 613 383 +16 422
2017/07/21 596 961 -30 614
2017/07/20 627 575 +9 315
2017/07/19 618 260 +18 517
2017/07/18 599 743 -4 758
2017/07/17 604 501 +11 743
2017/07/16 592 758 -16 979
2017/07/15 609 737 +852
2017/07/14 608 885 -1 044
2017/07/13 609 929 -39 921
2017/07/12 649 850 -27 953
2017/07/11 677 803 +12 036
2017/07/10 665 767 -13 205
2017/07/09 678 972 +4 953
2017/07/08 674 019 -5 689
2017/07/07 679 708 +10 276
2017/07/06 669 432 +25 436
2017/07/05 643 996 +15 960
2017/07/04 628 036 -56 380
2017/07/03 684 416 +6 198
2017/07/02 678 218 -16 951
2017/07/01 695 169 -22 116
2017/06/30 717 285 +23 358
2017/06/29 693 927 +10 981
2017/06/28 682 946 +4 831
2017/06/27 678 115 -6 073
2017/06/26 684 188 -58 931
2017/06/25 743 119 +69 675
2017/06/24 673 444 +37 138
2017/06/23 636 306 +11 783
2017/06/22 624 523 -29 460
2017/06/21 653 983 +37 494
2017/06/20 616 489 -14 942
2017/06/19 631 431 -26 248
2017/06/18 657 679 +3 811
2017/06/17 653 868 +17 648
2017/06/16 636 220 +7 165
2017/06/15 629 055 +436
2017/06/14 628 619 +33 330
2017/06/13 595 289 +12 053
2017/06/12 583 236 +27 313
2017/06/11 555 923 -5 577
2017/06/10 561 500 +12 536
2017/06/09 548 964 +3 901
2017/06/08 545 063 -488
2017/06/07 545 551 +8 498
2017/06/06 537 053 -6 266
2017/06/05 543 319 +20 540
2017/06/04 522 779 -340
2017/06/03 523 119 +15 034
2017/06/02 508 085 +16 481
2017/06/01 491 604 +9 797
2017/05/31 481 807 +9 185
2017/05/30 472 622 -651
2017/05/29 473 273 -2 534
2017/05/28 475 807 +13 907
2017/05/27 461 900 +7 364
2017/05/26 454 536 -2 997
2017/05/25 457 533 -12 707
2017/05/24 470 240

WIDGET FOR YOUR SITE

DOMAINS WITH THE NEAREST RANK

Domain Rank
rb.tv 554 942
almagharibia.tv 554 943
mods.in.ua 554 944
sdmall.co.kr 554 945
puntroadend.com 554 946
beowulf1117.tumblr.com 554 947
univ-droit.fr 554 948
bloominflowers.tumblr.com 554 949
pornoclothe.com 554 950
mahderetena.com 554 951
hardcorepawn.eu 554 952

DOMAINS WITH THE NEAREST RANK BY TLD .tumblr.c

Domain Rank
sir-klancelot.tumblr.com 554 549
maturecollection.tumblr.com 554 579
roidsandrants.tumblr.com 554 741
spidergifshen.tumblr.com 554 768
lok717hk.tumblr.com 554 790
beowulf1117.tumblr.com 554 947
bloominflowers.tumblr.com 554 949
ty228.tumblr.com 554 991
cg-starlight-stage.tumblr.com 555 109
captain-snark.tumblr.com 555 243
midnightmurdershow.tumblr.com 555 376